createdAt,value
2018-03-11T00:00:06.126Z,964.74
2018-03-11T00:01:05.738Z,964.79
2018-03-11T00:02:06.108Z,964.95
2018-03-11T00:03:05.666Z,964.90
2018-03-11T00:04:05.304Z,964.87
2018-03-11T00:05:05.666Z,964.84
2018-03-11T00:06:05.797Z,964.79
2018-03-11T00:07:05.851Z,964.87
2018-03-11T00:08:10.985Z,964.70
2018-03-11T00:09:05.204Z,964.65
2018-03-11T00:10:06.178Z,964.70
2018-03-11T00:11:05.532Z,964.65
2018-03-11T00:12:05.470Z,964.84
2018-03-11T00:13:05.580Z,964.83
2018-03-11T00:14:06.570Z,964.86
2018-03-11T00:15:05.269Z,964.89
2018-03-11T00:16:05.562Z,964.83
2018-03-11T00:17:05.311Z,964.92
2018-03-11T00:18:05.308Z,964.97
2018-03-11T00:19:05.270Z,964.94
2018-03-11T00:20:06.113Z,964.94
2018-03-11T00:21:05.235Z,964.91
2018-03-11T00:22:05.019Z,965.00
2018-03-11T00:23:04.920Z,965.00
2018-03-11T00:24:05.732Z,965.05
2018-03-11T00:25:05.843Z,964.86
2018-03-11T00:26:05.674Z,965.00
2018-03-11T00:27:06.817Z,964.97
2018-03-11T00:28:05.770Z,965.05
2018-03-11T00:29:05.481Z,965.05
2018-03-11T00:30:05.778Z,965.02
2018-03-11T00:31:05.043Z,964.88
2018-03-11T00:32:05.953Z,964.91
2018-03-11T00:33:06.752Z,964.88
2018-03-11T00:34:05.710Z,964.80
2018-03-11T00:35:04.978Z,965.16
2018-03-11T00:36:05.028Z,964.80
2018-03-11T00:37:05.786Z,964.85
2018-03-11T00:38:05.908Z,964.85
2018-03-11T00:39:10.906Z,964.80
2018-03-11T00:40:05.248Z,964.77
2018-03-11T00:41:05.622Z,964.80
2018-03-11T00:42:05.758Z,964.87
2018-03-11T00:43:05.248Z,964.68
2018-03-11T00:44:04.959Z,964.65
2018-03-11T00:45:05.919Z,964.85
2018-03-11T00:46:05.522Z,964.66
2018-03-11T00:47:05.655Z,964.57
2018-03-11T00:48:05.772Z,964.68
2018-03-11T00:49:05.539Z,964.68
2018-03-11T00:50:05.395Z,964.71
2018-03-11T00:51:05.391Z,964.71
2018-03-11T00:52:05.358Z,964.63
2018-03-11T00:53:05.586Z,964.66
2018-03-11T00:54:05.474Z,964.66
2018-03-11T00:55:05.471Z,964.63
2018-03-11T00:56:05.580Z,964.74
2018-03-11T00:57:05.390Z,964.63
2018-03-11T00:58:10.319Z,964.63
2018-03-11T00:59:05.663Z,964.54
2018-03-11T01:00:05.872Z,964.55
2018-03-11T01:01:05.544Z,964.52
2018-03-11T01:02:05.386Z,964.57
2018-03-11T01:03:05.258Z,964.60
2018-03-11T01:04:05.504Z,964.60
2018-03-11T01:05:05.537Z,964.69
2018-03-11T01:06:06.692Z,964.63
2018-03-11T01:07:04.983Z,964.63
2018-03-11T01:08:05.806Z,964.60
2018-03-11T01:09:05.594Z,964.66
2018-03-11T01:10:05.439Z,964.52
2018-03-11T01:11:05.468Z,964.63
2018-03-11T01:12:05.279Z,964.46
2018-03-11T01:13:05.199Z,964.57
2018-03-11T01:14:06.040Z,964.57
2018-03-11T01:15:05.360Z,964.52
2018-03-11T01:16:05.583Z,964.52
2018-03-11T01:17:05.557Z,964.46
2018-03-11T01:18:05.637Z,964.52
2018-03-11T01:19:05.330Z,964.46
2018-03-11T01:20:10.890Z,964.52
2018-03-11T01:21:05.752Z,964.49
2018-03-11T01:22:05.187Z,964.63
2018-03-11T01:23:05.390Z,964.68
2018-03-11T01:24:05.488Z,964.68
2018-03-11T01:25:05.459Z,964.46
2018-03-11T01:26:05.293Z,964.40
2018-03-11T01:27:05.376Z,964.66
2018-03-11T01:28:05.093Z,964.46
2018-03-11T01:29:05.582Z,964.49
2018-03-11T01:30:05.174Z,964.57
2018-03-11T01:31:05.844Z,964.46
2018-03-11T01:32:05.440Z,964.40
2018-03-11T01:33:04.994Z,964.51
2018-03-11T01:34:05.230Z,964.51
2018-03-11T01:35:05.194Z,964.49
2018-03-11T01:36:05.821Z,964.40
2018-03-11T01:37:05.775Z,964.49
2018-03-11T01:38:05.926Z,964.52
2018-03-11T01:39:05.809Z,964.51
2018-03-11T01:40:05.405Z,964.43
2018-03-11T01:41:05.410Z,964.29
2018-03-11T01:42:05.070Z,964.32
2018-03-11T01:43:05.536Z,964.29
2018-03-11T01:44:05.737Z,964.35
2018-03-11T01:45:05.944Z,964.26
2018-03-11T01:46:04.991Z,964.40
2018-03-11T01:47:06.134Z,964.46
2018-03-11T01:48:04.992Z,964.29
2018-03-11T01:49:05.973Z,964.29
2018-03-11T01:50:05.730Z,964.32
2018-03-11T01:51:05.932Z,964.35
2018-03-11T01:52:05.756Z,964.38
2018-03-11T01:53:05.349Z,964.29
2018-03-11T01:54:05.788Z,964.18
2018-03-11T01:55:05.062Z,964.32
2018-03-11T01:56:05.735Z,964.29
2018-03-11T01:57:05.366Z,964.24
2018-03-11T01:58:05.179Z,964.26
2018-03-11T01:59:05.656Z,964.15
2018-03-11T02:00:05.684Z,964.18
2018-03-11T02:01:05.884Z,964.12
2018-03-11T02:02:05.979Z,964.18
2018-03-11T02:03:05.627Z,964.24
2018-03-11T02:04:05.835Z,964.12
2018-03-11T02:05:05.952Z,964.09
2018-03-11T02:06:06.076Z,964.12
2018-03-11T02:07:05.976Z,963.95
2018-03-11T02:08:05.034Z,963.89
2018-03-11T02:09:05.922Z,963.95
2018-03-11T02:10:06.052Z,963.88
2018-03-11T02:11:05.628Z,963.98
2018-03-11T02:12:05.290Z,963.85
2018-03-11T02:13:06.049Z,963.95
2018-03-11T02:14:06.730Z,963.82
2018-03-11T02:15:05.132Z,963.92
2018-03-11T02:16:06.006Z,963.85
2018-03-11T02:17:05.451Z,963.82
2018-03-11T02:18:05.306Z,963.76
2018-03-11T02:19:05.197Z,963.65
2018-03-11T02:20:05.495Z,963.59
2018-03-11T02:21:05.340Z,963.62
2018-03-11T02:22:05.262Z,963.68
2018-03-11T02:23:05.180Z,963.79
2018-03-11T02:24:05.220Z,963.59
2018-03-11T02:25:05.923Z,963.79
2018-03-11T02:26:05.763Z,963.76
2018-03-11T02:27:05.592Z,963.70
2018-03-11T02:28:05.315Z,963.68
2018-03-11T02:29:05.044Z,963.68
2018-03-11T02:30:05.172Z,963.76
2018-03-11T02:31:05.285Z,963.73
2018-03-11T02:32:05.392Z,963.59
2018-03-11T02:33:05.423Z,963.71
2018-03-11T02:34:05.196Z,963.82
2018-03-11T02:35:05.152Z,963.65
2018-03-11T02:36:05.712Z,963.51
2018-03-11T02:37:05.267Z,963.62
2018-03-11T02:38:05.310Z,963.48
2018-03-11T02:39:05.260Z,963.48
2018-03-11T02:40:05.178Z,963.59
2018-03-11T02:41:05.073Z,963.62
2018-03-11T02:42:06.016Z,963.62
2018-03-11T02:43:06.047Z,963.46
2018-03-11T02:44:05.914Z,963.57
2018-03-11T02:45:05.862Z,963.57
2018-03-11T02:46:05.328Z,963.60
2018-03-11T02:47:05.214Z,963.52
2018-03-11T02:48:05.097Z,963.55
2018-03-11T02:49:05.722Z,963.66
2018-03-11T02:50:05.216Z,963.55
2018-03-11T02:51:05.344Z,963.61
2018-03-11T02:52:05.862Z,963.55
2018-03-11T02:53:15.655Z,963.70
2018-03-11T02:54:05.627Z,963.53
2018-03-11T02:55:05.391Z,963.58
2018-03-11T02:56:05.423Z,963.59
2018-03-11T02:57:05.444Z,963.56
2018-03-11T02:58:05.447Z,963.56
2018-03-11T02:59:05.149Z,963.53
2018-03-11T03:00:04.937Z,963.65
2018-03-11T03:01:05.884Z,963.53
2018-03-11T03:02:05.052Z,963.59
2018-03-11T03:03:10.954Z,963.59
2018-03-11T03:04:05.067Z,963.62
2018-03-11T03:05:05.671Z,963.51
2018-03-11T03:06:05.682Z,963.54
2018-03-11T03:07:05.685Z,963.60
2018-03-11T03:08:05.620Z,963.48
2018-03-11T03:09:05.659Z,963.43
2018-03-11T03:10:05.574Z,963.46
2018-03-11T03:11:05.629Z,963.37
2018-03-11T03:12:05.007Z,963.43
2018-03-11T03:13:05.907Z,963.51
2018-03-11T03:14:05.309Z,963.29
2018-03-11T03:15:05.326Z,963.34
2018-03-11T03:16:05.414Z,963.34
2018-03-11T03:17:05.287Z,963.48
2018-03-11T03:18:05.633Z,963.37
2018-03-11T03:19:05.782Z,963.34
2018-03-11T03:20:05.055Z,963.31
2018-03-11T03:21:05.127Z,963.40
2018-03-11T03:22:10.054Z,963.28
2018-03-11T03:23:05.095Z,963.48
2018-03-11T03:24:05.742Z,963.40
2018-03-11T03:25:05.654Z,963.37
2018-03-11T03:26:05.848Z,963.34
2018-03-11T03:27:05.848Z,963.31
2018-03-11T03:28:05.858Z,963.31
2018-03-11T03:29:05.334Z,963.23
2018-03-11T03:30:05.483Z,963.23
2018-03-11T03:31:05.599Z,963.28
2018-03-11T03:32:06.774Z,963.26
2018-03-11T03:33:05.098Z,963.11
2018-03-11T03:34:05.917Z,963.00
2018-03-11T03:35:06.129Z,963.20
2018-03-11T03:36:05.981Z,963.16
2018-03-11T03:37:05.514Z,963.16
2018-03-11T03:38:05.193Z,963.08
2018-03-11T03:39:05.650Z,963.02
2018-03-11T03:40:05.835Z,963.05
2018-03-11T03:41:05.541Z,963.04
2018-03-11T03:42:05.692Z,963.04
2018-03-11T03:43:05.753Z,962.99
2018-03-11T03:44:05.364Z,963.01
2018-03-11T03:45:05.605Z,962.93
2018-03-11T03:46:05.985Z,963.04
2018-03-11T03:47:05.910Z,962.98
2018-03-11T03:48:06.089Z,962.90
2018-03-11T03:49:05.225Z,962.79
2018-03-11T03:50:05.385Z,962.79
2018-03-11T03:51:05.005Z,963.07
2018-03-11T03:52:10.133Z,962.81
2018-03-11T03:53:05.470Z,962.87
2018-03-11T03:54:05.266Z,963.01
2018-03-11T03:55:05.121Z,962.90
2018-03-11T03:56:05.176Z,962.84
2018-03-11T03:57:05.444Z,962.81
2018-03-11T03:58:05.470Z,962.90
2018-03-11T03:59:05.707Z,962.84
2018-03-11T04:00:05.624Z,962.90
2018-03-11T04:01:05.372Z,962.84
2018-03-11T04:02:05.393Z,962.84
2018-03-11T04:03:05.451Z,962.78
2018-03-11T04:04:05.199Z,962.90
2018-03-11T04:05:05.523Z,962.81
2018-03-11T04:06:09.086Z,962.87
2018-03-11T04:07:05.081Z,962.90
2018-03-11T04:08:05.527Z,962.87
2018-03-11T04:09:05.267Z,962.76
2018-03-11T04:10:05.382Z,962.84
2018-03-11T04:11:05.534Z,962.87
2018-03-11T04:12:05.015Z,962.76
2018-03-11T04:13:05.986Z,962.73
2018-03-11T04:14:05.348Z,962.81
2018-03-11T04:15:05.266Z,962.81
2018-03-11T04:16:05.594Z,962.70
2018-03-11T04:17:10.336Z,962.70
2018-03-11T04:18:05.319Z,962.84
2018-03-11T04:19:05.880Z,962.79
2018-03-11T04:20:05.893Z,962.79
2018-03-11T04:21:05.458Z,962.93
2018-03-11T04:22:05.395Z,962.90
2018-03-11T04:23:10.267Z,962.85
2018-03-11T04:24:05.496Z,962.85
2018-03-11T04:25:05.047Z,962.87
2018-03-11T04:26:04.999Z,962.90
2018-03-11T04:27:05.689Z,962.73
2018-03-11T04:28:05.654Z,962.82
2018-03-11T04:29:06.973Z,962.73
2018-03-11T04:30:05.133Z,962.70
2018-03-11T04:31:05.455Z,962.65
2018-03-11T04:32:05.693Z,962.67
2018-03-11T04:33:05.839Z,962.70
2018-03-11T04:34:06.088Z,962.76
2018-03-11T04:35:05.345Z,962.70
2018-03-11T04:36:05.331Z,962.70
2018-03-11T04:37:05.676Z,962.56
2018-03-11T04:38:05.655Z,962.53
2018-03-11T04:39:05.072Z,962.53
2018-03-11T04:40:05.832Z,962.51
2018-03-11T04:41:05.524Z,962.62
2018-03-11T04:42:05.277Z,962.68
2018-03-11T04:43:05.430Z,962.48
2018-03-11T04:44:05.506Z,962.60
2018-03-11T04:45:05.982Z,962.63
2018-03-11T04:46:05.391Z,962.63
2018-03-11T04:47:05.208Z,962.60
2018-03-11T04:48:05.823Z,962.63
2018-03-11T04:49:05.830Z,962.63
2018-03-11T04:50:05.841Z,962.63
2018-03-11T04:51:05.879Z,962.45
2018-03-11T04:52:05.865Z,962.49
2018-03-11T04:53:05.795Z,962.52
2018-03-11T04:54:05.567Z,962.58
2018-03-11T04:55:05.012Z,962.64
2018-03-11T04:56:06.143Z,962.58
2018-03-11T04:57:05.373Z,962.55
2018-03-11T04:58:05.597Z,962.50
2018-03-11T04:59:05.325Z,962.58
2018-03-11T05:00:06.250Z,962.58
2018-03-11T05:01:05.598Z,962.48
2018-03-11T05:02:05.112Z,962.45
2018-03-11T05:03:10.222Z,962.40
2018-03-11T05:04:05.214Z,962.46
2018-03-11T05:05:05.184Z,962.51
2018-03-11T05:06:05.205Z,962.54
2018-03-11T05:07:05.640Z,962.46
2018-03-11T05:08:05.164Z,962.47
2018-03-11T05:09:05.170Z,962.41
2018-03-11T05:10:05.391Z,962.55
2018-03-11T05:11:05.825Z,962.42
2018-03-11T05:12:05.167Z,962.55
2018-03-11T05:13:05.724Z,962.39
2018-03-11T05:14:05.102Z,962.48
2018-03-11T05:15:05.185Z,962.43
2018-03-11T05:16:06.014Z,962.53
2018-03-11T05:17:05.614Z,962.46
2018-03-11T05:18:05.736Z,962.54
2018-03-11T05:19:05.137Z,962.38
2018-03-11T05:20:05.166Z,962.48
2018-03-11T05:21:05.067Z,962.54
2018-03-11T05:22:05.130Z,962.54
2018-03-11T05:23:05.736Z,962.41
2018-03-11T05:24:05.647Z,962.54
2018-03-11T05:25:08.918Z,962.57
2018-03-11T05:26:05.315Z,962.44
2018-03-11T05:27:06.057Z,962.42
2018-03-11T05:28:05.830Z,962.52
2018-03-11T05:29:05.413Z,962.58
2018-03-11T05:30:10.974Z,962.49
2018-03-11T05:31:05.544Z,962.52
2018-03-11T05:32:09.718Z,962.42
2018-03-11T05:33:10.710Z,962.42
2018-03-11T05:34:05.793Z,962.56
2018-03-11T05:35:05.233Z,962.58
2018-03-11T05:36:06.175Z,962.61
2018-03-11T05:37:10.362Z,962.46
2018-03-11T05:38:05.615Z,962.50
2018-03-11T05:39:05.760Z,962.53
2018-03-11T05:40:05.836Z,962.35
2018-03-11T05:41:06.122Z,962.51
2018-03-11T05:42:05.772Z,962.51
2018-03-11T05:43:05.566Z,962.57
2018-03-11T05:44:05.502Z,962.49
2018-03-11T05:45:05.820Z,962.60
2018-03-11T05:46:04.901Z,962.57
2018-03-11T05:47:05.948Z,962.58
2018-03-11T05:48:05.646Z,962.52
2018-03-11T05:49:05.494Z,962.55
2018-03-11T05:50:05.398Z,962.39
2018-03-11T05:51:05.809Z,962.39
2018-03-11T05:52:05.838Z,962.45
2018-03-11T05:53:05.778Z,962.37
2018-03-11T05:54:05.852Z,962.42
2018-03-11T05:55:06.140Z,962.34
2018-03-11T05:56:05.415Z,962.31
2018-03-11T05:57:06.247Z,962.42
2018-03-11T05:58:05.560Z,962.34
2018-03-11T05:59:05.152Z,962.34
2018-03-11T06:00:05.625Z,962.28
2018-03-11T06:01:05.314Z,962.28
2018-03-11T06:02:05.847Z,962.28
2018-03-11T06:03:05.625Z,962.18
2018-03-11T06:04:05.787Z,962.40
2018-03-11T06:05:05.456Z,962.20
2018-03-11T06:06:05.818Z,962.39
2018-03-11T06:07:08.479Z,962.28
2018-03-11T06:08:05.447Z,962.19
2018-03-11T06:09:05.148Z,962.27
2018-03-11T06:10:05.354Z,962.30
2018-03-11T06:11:05.497Z,962.33
2018-03-11T06:12:05.000Z,962.16
2018-03-11T06:13:05.804Z,962.38
2018-03-11T06:14:05.188Z,962.29
2018-03-11T06:15:05.345Z,962.46
2018-03-11T06:16:05.318Z,962.29
2018-03-11T06:17:05.588Z,962.31
2018-03-11T06:18:05.955Z,962.46
2018-03-11T06:19:05.711Z,962.37
2018-03-11T06:20:05.884Z,962.40
2018-03-11T06:21:05.312Z,962.40
2018-03-11T06:22:05.922Z,962.34
2018-03-11T06:23:05.243Z,962.39
2018-03-11T06:24:05.638Z,962.32
2018-03-11T06:25:05.119Z,962.46
2018-03-11T06:26:05.731Z,962.33
2018-03-11T06:27:05.197Z,962.47
2018-03-11T06:28:05.542Z,962.46
2018-03-11T06:29:05.455Z,962.45
2018-03-11T06:30:05.374Z,962.51
2018-03-11T06:31:05.356Z,962.43
2018-03-11T06:32:07.022Z,962.48
2018-03-11T06:33:05.475Z,962.36
2018-03-11T06:34:05.471Z,962.48
2018-03-11T06:35:05.457Z,962.55
2018-03-11T06:36:05.702Z,962.41
2018-03-11T06:37:06.282Z,962.37
2018-03-11T06:38:05.603Z,962.34
2018-03-11T06:39:05.714Z,962.58
2018-03-11T06:40:05.707Z,962.46
2018-03-11T06:41:05.860Z,962.56
2018-03-11T06:42:05.879Z,962.50
2018-03-11T06:43:05.738Z,962.49
2018-03-11T06:44:05.447Z,962.52
2018-03-11T06:45:05.745Z,962.63
2018-03-11T06:46:05.064Z,962.47
2018-03-11T06:47:06.058Z,962.65
2018-03-11T06:48:10.962Z,962.57
2018-03-11T06:49:05.110Z,962.59
2018-03-11T06:50:05.668Z,962.67
2018-03-11T06:51:05.398Z,962.64
2018-03-11T06:52:05.507Z,962.58
2018-03-11T06:53:06.127Z,962.57
2018-03-11T06:54:05.427Z,962.51
2018-03-11T06:55:10.887Z,962.46
2018-03-11T06:56:05.811Z,962.59
2018-03-11T06:57:05.472Z,962.56
2018-03-11T06:58:05.354Z,962.61
2018-03-11T06:59:05.452Z,962.66
2018-03-11T07:00:05.387Z,962.68
2018-03-11T07:01:05.682Z,962.79
2018-03-11T07:02:05.919Z,962.81
2018-03-11T07:03:05.302Z,962.83
2018-03-11T07:04:05.975Z,962.83
2018-03-11T07:05:05.977Z,962.99
2018-03-11T07:06:06.155Z,962.81
2018-03-11T07:07:05.919Z,962.77
2018-03-11T07:08:04.990Z,962.85
2018-03-11T07:09:05.515Z,962.73
2018-03-11T07:10:05.441Z,962.61
2018-03-11T07:11:05.567Z,962.66
2018-03-11T07:12:05.556Z,962.57
2018-03-11T07:13:05.579Z,962.71
2018-03-11T07:14:05.922Z,962.56
2018-03-11T07:15:05.779Z,962.64
2018-03-11T07:16:05.505Z,962.61
2018-03-11T07:17:05.403Z,962.60
2018-03-11T07:18:05.440Z,962.57
2018-03-11T07:19:05.675Z,962.62
2018-03-11T07:20:10.673Z,962.48
2018-03-11T07:21:05.937Z,962.53
2018-03-11T07:22:05.122Z,962.53
2018-03-11T07:23:06.491Z,962.49
2018-03-11T07:24:05.486Z,962.63
2018-03-11T07:25:05.958Z,962.55
2018-03-11T07:26:05.574Z,962.60
2018-03-11T07:27:05.911Z,962.54
2018-03-11T07:28:05.019Z,962.66
2018-03-11T07:29:05.514Z,962.60
2018-03-11T07:30:05.204Z,962.62
2018-03-11T07:31:05.371Z,962.60
2018-03-11T07:32:07.808Z,962.43
2018-03-11T07:33:05.276Z,962.38
2018-03-11T07:34:05.935Z,962.41
2018-03-11T07:35:05.879Z,962.43
2018-03-11T07:36:10.466Z,962.29
2018-03-11T07:37:05.379Z,962.35
2018-03-11T07:38:05.768Z,962.38
2018-03-11T07:39:05.832Z,962.18
2018-03-11T07:40:06.009Z,962.20
2018-03-11T07:41:06.014Z,962.29
2018-03-11T07:42:06.391Z,962.18
2018-03-11T07:43:05.400Z,962.32
2018-03-11T07:44:05.339Z,962.18
2018-03-11T07:45:05.420Z,962.23
2018-03-11T07:46:05.537Z,962.18
2018-03-11T07:47:06.261Z,962.12
2018-03-11T07:48:07.861Z,962.34
2018-03-11T07:49:05.414Z,962.17
2018-03-11T07:50:05.412Z,962.19
2018-03-11T07:51:06.170Z,962.22
2018-03-11T07:52:05.444Z,962.17
2018-03-11T07:53:05.632Z,962.06
2018-03-11T07:54:05.905Z,962.14
2018-03-11T07:55:06.490Z,962.19
2018-03-11T07:56:06.172Z,962.03
2018-03-11T07:57:05.312Z,962.30
2018-03-11T07:58:05.539Z,962.17
2018-03-11T07:59:06.006Z,962.21
2018-03-11T08:00:05.283Z,962.21
2018-03-11T08:01:05.477Z,962.19
2018-03-11T08:02:06.172Z,962.13
2018-03-11T08:03:06.048Z,962.13
2018-03-11T08:04:05.747Z,962.13
2018-03-11T08:05:05.814Z,962.18
2018-03-11T08:06:05.958Z,962.13
2018-03-11T08:07:05.351Z,961.98
2018-03-11T08:08:05.178Z,961.98
2018-03-11T08:09:06.192Z,962.04
2018-03-11T08:10:05.147Z,962.04
2018-03-11T08:11:05.707Z,961.98
2018-03-11T08:12:10.509Z,961.95
2018-03-11T08:13:05.757Z,961.89
2018-03-11T08:14:05.027Z,961.92
2018-03-11T08:15:06.100Z,961.78
2018-03-11T08:16:05.843Z,961.93
2018-03-11T08:17:05.381Z,961.87
2018-03-11T08:18:05.492Z,961.81
2018-03-11T08:19:05.549Z,961.81
2018-03-11T08:20:10.757Z,961.72
2018-03-11T08:21:05.600Z,961.95
2018-03-11T08:22:05.392Z,961.69
2018-03-11T08:23:05.372Z,961.75
2018-03-11T08:24:05.228Z,961.77
2018-03-11T08:25:05.735Z,961.83
2018-03-11T08:26:05.765Z,961.83
2018-03-11T08:27:05.912Z,961.77
2018-03-11T08:28:05.568Z,961.80
2018-03-11T08:29:05.351Z,961.71
2018-03-11T08:30:05.229Z,961.72
2018-03-11T08:31:05.506Z,961.66
2018-03-11T08:32:05.585Z,961.72
2018-03-11T08:33:05.868Z,961.64
2018-03-11T08:34:06.085Z,961.84
2018-03-11T08:35:05.216Z,961.76
2018-03-11T08:36:07.025Z,961.59
2018-03-11T08:37:05.453Z,961.79
2018-03-11T08:38:05.286Z,961.79
2018-03-11T08:39:05.273Z,961.93
2018-03-11T08:40:05.328Z,961.73
2018-03-11T08:41:05.934Z,961.85
2018-03-11T08:42:05.494Z,961.76
2018-03-11T08:43:05.356Z,961.85
2018-03-11T08:44:05.455Z,961.90
2018-03-11T08:45:05.640Z,961.96
2018-03-11T08:46:05.314Z,961.82
2018-03-11T08:47:05.300Z,961.87
2018-03-11T08:48:05.420Z,961.78
2018-03-11T08:49:05.306Z,961.84
2018-03-11T08:50:05.312Z,961.75
2018-03-11T08:51:05.554Z,961.84
2018-03-11T08:52:04.943Z,961.64
2018-03-11T08:53:07.131Z,961.78
2018-03-11T08:54:07.233Z,961.75
2018-03-11T08:55:06.064Z,961.64
2018-03-11T08:56:06.717Z,961.72
2018-03-11T08:57:05.573Z,961.61
2018-03-11T08:58:06.526Z,961.61
2018-03-11T08:59:05.614Z,961.63
2018-03-11T09:00:05.310Z,961.57
2018-03-11T09:01:05.102Z,961.45
2018-03-11T09:02:05.126Z,961.54
2018-03-11T09:03:05.118Z,961.45
2018-03-11T09:04:05.546Z,961.50
2018-03-11T09:05:05.850Z,961.50
2018-03-11T09:06:05.606Z,961.67
2018-03-11T09:07:05.329Z,961.75
2018-03-11T09:08:05.384Z,961.72
2018-03-11T09:09:05.519Z,961.63
2018-03-11T09:10:05.886Z,961.74
2018-03-11T09:11:05.660Z,961.77
2018-03-11T09:12:10.641Z,961.74
2018-03-11T09:13:06.107Z,961.59
2018-03-11T09:14:07.091Z,961.74
2018-03-11T09:15:05.501Z,961.65
2018-03-11T09:16:05.222Z,961.85
2018-03-11T09:17:05.220Z,961.79
2018-03-11T09:18:05.759Z,961.76
2018-03-11T09:19:05.817Z,961.67
2018-03-11T09:20:05.800Z,961.67
2018-03-11T09:21:05.335Z,961.61
2018-03-11T09:22:05.242Z,961.66
2018-03-11T09:23:05.411Z,961.69
2018-03-11T09:24:05.487Z,961.69
2018-03-11T09:25:06.114Z,961.69
2018-03-11T09:26:05.870Z,961.69
2018-03-11T09:27:08.906Z,961.55
2018-03-11T09:28:06.093Z,961.69
2018-03-11T09:29:05.962Z,961.60
2018-03-11T09:30:05.486Z,961.60
2018-03-11T09:31:05.437Z,961.52
2018-03-11T09:32:05.596Z,961.75
2018-03-11T09:33:05.233Z,961.66
2018-03-11T09:34:05.365Z,961.69
2018-03-11T09:35:05.055Z,961.69
2018-03-11T09:36:06.571Z,961.54
2018-03-11T09:37:05.374Z,961.46
2018-03-11T09:38:05.152Z,961.46
2018-03-11T09:39:05.807Z,961.40
2018-03-11T09:40:05.949Z,961.37
2018-03-11T09:41:05.120Z,961.34
2018-03-11T09:42:05.577Z,961.43
2018-03-11T09:43:05.379Z,961.34
2018-03-11T09:44:05.204Z,961.39
2018-03-11T09:45:05.028Z,961.36
2018-03-11T09:46:05.987Z,961.36
2018-03-11T09:47:05.931Z,961.44
2018-03-11T09:48:06.070Z,961.61
2018-03-11T09:49:05.345Z,961.58
2018-03-11T09:50:05.586Z,961.64
2018-03-11T09:51:05.586Z,961.81
2018-03-11T09:52:05.442Z,961.69
2018-03-11T09:53:05.364Z,961.63
2018-03-11T09:54:05.104Z,961.65
2018-03-11T09:55:05.871Z,961.59
2018-03-11T09:56:05.162Z,961.84
2018-03-11T09:57:05.457Z,961.70
2018-03-11T09:58:05.893Z,961.61
2018-03-11T09:59:05.993Z,961.49
2018-03-11T10:00:05.870Z,961.43
2018-03-11T10:01:05.434Z,961.59
2018-03-11T10:02:05.203Z,961.51
2018-03-11T10:03:05.225Z,961.48
2018-03-11T10:04:06.352Z,961.47
2018-03-11T10:05:05.854Z,961.64
2018-03-11T10:06:05.313Z,961.58
2018-03-11T10:07:05.709Z,961.55
2018-03-11T10:08:05.121Z,961.49
2018-03-11T10:09:05.355Z,961.40
2018-03-11T10:10:06.140Z,961.48
2018-03-11T10:11:05.072Z,961.59
2018-03-11T10:12:05.752Z,961.36
2018-03-11T10:13:05.781Z,961.29
2018-03-11T10:14:05.450Z,961.46
2018-03-11T10:15:05.161Z,961.51
2018-03-11T10:16:05.311Z,961.22
2018-03-11T10:17:05.745Z,961.42
2018-03-11T10:18:05.578Z,961.30
2018-03-11T10:19:09.604Z,961.27
2018-03-11T10:20:05.865Z,961.35
2018-03-11T10:21:05.378Z,961.26
2018-03-11T10:22:05.195Z,961.38
2018-03-11T10:23:05.950Z,961.35
2018-03-11T10:24:05.269Z,961.38
2018-03-11T10:25:05.791Z,961.26
2018-03-11T10:26:05.776Z,961.29
2018-03-11T10:27:05.562Z,961.23
2018-03-11T10:28:05.151Z,961.26
2018-03-11T10:29:05.320Z,961.26
2018-03-11T10:30:05.803Z,961.14
2018-03-11T10:31:05.743Z,961.19
2018-03-11T10:32:05.645Z,961.22
2018-03-11T10:33:05.736Z,961.16
2018-03-11T10:34:05.212Z,961.16
2018-03-11T10:35:05.400Z,961.04
2018-03-11T10:36:05.528Z,961.01
2018-03-11T10:37:05.659Z,961.07
2018-03-11T10:38:05.489Z,961.06
2018-03-11T10:39:05.731Z,961.03
2018-03-11T10:40:05.851Z,961.00
2018-03-11T10:41:05.336Z,961.11
2018-03-11T10:42:05.253Z,960.99
2018-03-11T10:43:05.487Z,960.99
2018-03-11T10:44:05.127Z,960.92
2018-03-11T10:45:05.797Z,960.95
2018-03-11T10:46:05.534Z,960.95
2018-03-11T10:47:05.084Z,960.91
2018-03-11T10:48:06.130Z,960.75
2018-03-11T10:49:05.632Z,960.71
2018-03-11T10:50:05.312Z,960.84
2018-03-11T10:51:05.625Z,960.78
2018-03-11T10:52:05.608Z,960.73
2018-03-11T10:53:05.427Z,960.78
2018-03-11T10:54:05.238Z,960.78
2018-03-11T10:55:05.521Z,960.76
2018-03-11T10:56:10.201Z,960.61
2018-03-11T10:57:05.352Z,960.55
2018-03-11T10:58:05.034Z,960.57
2018-03-11T10:59:05.668Z,960.51
2018-03-11T11:00:05.500Z,960.54
2018-03-11T11:01:09.998Z,960.45
2018-03-11T11:02:05.636Z,960.53
2018-03-11T11:03:05.411Z,960.44
2018-03-11T11:04:05.468Z,960.44
2018-03-11T11:05:05.096Z,960.49
2018-03-11T11:06:05.745Z,960.35
2018-03-11T11:07:06.002Z,960.31
2018-03-11T11:08:05.032Z,960.34
2018-03-11T11:09:05.754Z,960.40
2018-03-11T11:10:05.628Z,960.22
2018-03-11T11:11:10.467Z,960.22
2018-03-11T11:12:05.334Z,960.04
2018-03-11T11:13:05.662Z,960.10
2018-03-11T11:14:05.579Z,959.98
2018-03-11T11:15:05.729Z,960.01
2018-03-11T11:16:05.723Z,960.09
2018-03-11T11:17:05.524Z,960.12
2018-03-11T11:18:05.104Z,960.00
2018-03-11T11:19:05.816Z,960.09
2018-03-11T11:20:05.849Z,960.14
2018-03-11T11:21:05.839Z,960.11
2018-03-11T11:22:05.511Z,960.17
2018-03-11T11:23:05.924Z,960.05
2018-03-11T11:24:05.878Z,960.05
2018-03-11T11:25:05.665Z,960.13
2018-03-11T11:26:05.072Z,960.10
2018-03-11T11:27:05.840Z,960.18
2018-03-11T11:28:06.519Z,960.18
2018-03-11T11:29:05.658Z,960.20
2018-03-11T11:30:05.495Z,960.17
2018-03-11T11:31:06.068Z,960.34
2018-03-11T11:32:05.728Z,960.11
2018-03-11T11:33:06.366Z,960.19
2018-03-11T11:34:06.002Z,960.31
2018-03-11T11:35:05.144Z,960.34
2018-03-11T11:36:10.268Z,960.17
2018-03-11T11:37:05.449Z,960.11
2018-03-11T11:38:05.863Z,960.20
2018-03-11T11:39:05.248Z,960.17
2018-03-11T11:40:05.129Z,960.17
2018-03-11T11:41:05.951Z,960.03
2018-03-11T11:42:05.787Z,960.20
2018-03-11T11:43:06.568Z,960.14
2018-03-11T11:44:05.497Z,960.17
2018-03-11T11:45:05.794Z,960.14
2018-03-11T11:46:05.986Z,959.99
2018-03-11T11:47:06.119Z,960.04
2018-03-11T11:48:05.328Z,959.95
2018-03-11T11:49:05.188Z,960.01
2018-03-11T11:50:05.287Z,959.98
2018-03-11T11:51:05.292Z,960.03
2018-03-11T11:52:05.882Z,959.88
2018-03-11T11:53:05.347Z,960.02
2018-03-11T11:54:10.070Z,959.99
2018-03-11T11:55:05.813Z,959.90
2018-03-11T11:56:05.700Z,959.96
2018-03-11T11:57:05.188Z,959.99
2018-03-11T11:58:05.072Z,960.21
2018-03-11T11:59:06.001Z,959.92
2018-03-11T12:00:05.938Z,959.89
2018-03-11T12:01:05.360Z,960.01
2018-03-11T12:02:05.120Z,959.89
2018-03-11T12:03:05.356Z,959.98
2018-03-11T12:04:05.889Z,960.06
2018-03-11T12:05:06.597Z,960.03
2018-03-11T12:06:05.002Z,960.04
2018-03-11T12:07:06.097Z,959.98
2018-03-11T12:08:05.576Z,959.92
2018-03-11T12:09:05.576Z,959.89
2018-03-11T12:10:05.514Z,959.95
2018-03-11T12:11:05.723Z,959.95
2018-03-11T12:12:05.228Z,959.95
2018-03-11T12:13:05.384Z,959.86
2018-03-11T12:14:05.451Z,959.74
2018-03-11T12:15:05.300Z,959.83
2018-03-11T12:16:05.691Z,959.74
2018-03-11T12:17:05.679Z,959.80
2018-03-11T12:18:05.844Z,959.80
2018-03-11T12:19:05.756Z,959.86
2018-03-11T12:20:05.595Z,960.03
2018-03-11T12:21:05.298Z,959.83
2018-03-11T12:22:05.436Z,959.86
2018-03-11T12:23:05.491Z,959.83
2018-03-11T12:24:05.826Z,959.83
2018-03-11T12:25:05.002Z,959.76
2018-03-11T12:26:05.927Z,959.66
2018-03-11T12:27:05.714Z,959.65
2018-03-11T12:28:04.927Z,959.70